Flight Track Log - Related Links

Times and Time Zones

All times are in EDT time to prevent confusion due to time zone crossing. See the AAL297 flight status page for this flight to view local times or setup timezone preferences in your user account.

Time Position Orientation Groundspeed Altitude Reporting Facility
EDT Latitude Longitude Course Direction KTS MPH feet Rate Location/Type
Wed 07:35:07 PM 33.9333 -118.4833 297° West 226 260 2,300  Level Southern California TRACON
Wed 07:36:00 PM 34.0407 -118.8082 285° West  Level FlightAware Approximate
Wed 07:36:07 PM 33.9167 -118.5667 256° West 275 316 3,800  Level Southern California TRACON
Wed 07:37:00 PM 34.0851 -118.9403 287° West  Level FlightAware Approximate
Wed 07:37:19 PM 33.9158 -118.6800 270° West 276 318 4,300  Level Los Angeles Center
Wed 07:38:00 PM 34.1186 -119.0706 301° West  Level FlightAware Approximate
Wed 07:38:21 PM 33.9103 -118.7739 266° West 281 323 7,300  Level Los Angeles Center
Wed 07:39:00 PM 34.1876 -119.1869 307° West  Level FlightAware Approximate
Wed 07:39:23 PM 33.9064 -118.8672 267° West 297 342 9,700  Level Los Angeles Center
Wed 07:40:00 PM 34.2492 -119.3092 297° West  Level FlightAware Approximate
Wed 07:40:25 PM 33.9144 -118.9769 275° West 336 387 11,100  Level Los Angeles Center
Wed 07:41:26 PM 33.9611 -119.0961 295° West 394 453 12,000 1,935 Climbing Los Angeles Center
Wed 07:42:29 PM 34.0158 -119.2414 294° West 395 455 15,100 2,688 Climbing Los Angeles Center
Wed 07:43:31 PM 34.0847 -119.3472 308° West 399 459 17,600 2,177 Climbing Los Angeles Center
Wed 07:44:33 PM 34.1636 -119.4467 314° West 410 472 19,600 2,032 Climbing Los Angeles Center
Wed 07:45:35 PM 34.2447 -119.5494 314° West 420 483 21,800 2,032 Climbing Los Angeles Center
Wed 07:46:37 PM 34.3261 -119.6525 314° West 424 488 23,800 1,968 Climbing Los Angeles Center
Wed 07:47:40 PM 34.4256 -119.7783 314° West 432 497 25,900 1,584 Climbing Los Angeles Center
Wed 07:48:42 PM 34.5097 -119.8853 314° West 439 505 27,100 1,258 Climbing Los Angeles Center
Wed 07:49:44 PM 34.5964 -119.9967 313° West 452 520 28,500 1,355 Climbing Los Angeles Center
Wed 07:50:46 PM 34.6786 -120.0964 315° West 457 526 29,900 1,306 Climbing Los Angeles Center
Wed 07:51:48 PM 34.7858 -120.2339 314° West 468 539 31,200 1,258 Climbing Los Angeles Center
Wed 07:52:50 PM 34.8725 -120.3478 313° West 466 536 32,500 1,440 Climbing Los Angeles Center
Wed 07:53:53 PM 34.9603 -120.4606 314° West 465 535 34,200 1,306 Climbing Los Angeles Center
Wed 07:54:54 PM 35.0458 -120.5711 313° West 454 522 35,200 878 Climbing Los Angeles Center
Wed 07:55:56 PM 35.1489 -120.7050 313° West 454 522 36,000 387 Climbing Los Angeles Center
Wed 07:56:58 PM 35.2342 -120.8156 313° West 450 518 36,000  Level Los Angeles Center
Wed 07:58:01 PM 35.3192 -120.9261 313° West 447 514 36,000  Level Los Angeles Center
Wed 07:59:03 PM 35.4022 -121.0364 313° West 442 509 36,000  Level Los Angeles Center
Wed 07:59:33 PM 35.4444 -121.0931 312° West 441 507 36,000  Level Oakland Center
Wed 08:00:34 PM 35.5275 -121.2019 313° West 439 505 36,000  Level Oakland Center
Wed 08:01:35 PM 35.6094 -121.3128 312° West 438 504 36,000  Level Oakland Center
Wed 08:02:37 PM 35.7053 -121.4508 311° West 440 506 36,000  Level Oakland Center
Wed 08:03:38 PM 35.7333 -121.6019 283° West 458 527 36,000  Level Oakland Center
Wed 08:04:39 PM 35.7564 -121.7517 281° West 450 518 36,000  Level Oakland Center
Wed 08:05:41 PM 35.7767 -121.9031 279° West 449 517 36,000  Level Oakland Center
Wed 08:06:42 PM 35.8017 -122.0544 282° West 452 520 36,000  Level Oakland Center
Wed 08:07:43 PM 35.8242 -122.2064 280° West 451 519 36,000  Level Oakland Center
Wed 08:08:45 PM 35.8489 -122.3550 282° West 446 513 36,000  Level Oakland Center
Wed 08:09:46 PM 35.8717 -122.5067 281° West 451 519 36,000  Level Oakland Center
Wed 08:10:47 PM 35.8936 -122.6569 280° West 447 514 36,000  Level Oakland Center
Wed 08:11:49 PM 35.9208 -122.8378 281° West 447 514 36,000  Level Oakland Center
Wed 08:12:50 PM 35.9436 -122.9869 281° West 442 509 36,000  Level Oakland Center
Wed 08:13:51 PM 35.9656 -123.1344 280° West 450 518 36,000  Level Oakland Center
Wed 08:14:53 PM 35.9869 -123.2808 280° West 439 505 36,000  Level Oakland Center
Wed 08:15:54 PM 36.0089 -123.4311 280° West 444 511 36,000  Level Oakland Center
Wed 08:16:55 PM 36.0292 -123.5767 280° West 436 502 36,000  Level Oakland Center
Wed 08:17:56 PM 36.0503 -123.7239 280° West 438 504 36,000  Level Oakland Center
Wed 08:18:58 PM 36.0714 -123.8711 280° West 436 502 36,000  Level Oakland Center
Wed 08:19:59 PM 36.0917 -124.0183 280° West 436 502 36,000  Level Oakland Center
Wed 08:21:00 PM 36.1164 -124.1953 280° West 438 504 36,000  Level Oakland Center
Wed 08:22:02 PM 36.1358 -124.3411 279° West 433 498 36,000  Level Oakland Center
Wed 08:23:03 PM 36.1569 -124.4892 280° West 435 501 36,000  Level Oakland Center
Wed 08:24:04 PM 36.1764 -124.6378 279° West 436 502 36,000  Level Oakland Center
Wed 08:25:05 PM 36.1961 -124.7858 279° West 437 503 36,000  Level Oakland Center
Wed 08:26:07 PM 36.2156 -124.9339 279° West 437 503 36,000  Level Oakland Center
Wed 08:27:08 PM 36.2358 -125.0831 280° West 442 509 36,000  Level Oakland Center
Wed 08:28:09 PM 36.2550 -125.2306 279° West 436 502 36,000  Level Oakland Center
Wed 08:29:10 PM 36.2717 -125.3753 278° West 430 495 36,000  Level Oakland Center
Wed 08:30:12 PM 36.2914 -125.5250 279° West 435 501 36,000  Level Oakland Center
Wed 08:31:13 PM 36.3181 -125.7067 280° West 440 506 36,000  Level Oakland Center
Wed 08:32:14 PM 36.3369 -125.8539 279° West 439 505 36,000  Level Oakland Center
Wed 08:34:00 PM 36.3648 -126.1076 278° West  Level FlightAware Approximate
Wed 08:41:00 PM 36.3954 -127.1044 250° West  Level FlightAware Approximate
Wed 08:41:37 PM 36.4667 -126.9333 250° West 444 511 36,000  Level Oakland Oceanic (ODAPS)
Wed 08:42:00 PM 36.3556 -127.2406 250° West  Level FlightAware Approximate
Wed 08:43:00 PM 36.3156 -127.3768 250° West  Level FlightAware Approximate
Wed 08:44:00 PM 36.2754 -127.5128 250° West  Level FlightAware Approximate
Wed 08:45:00 PM 36.2351 -127.6487 250° West  Level FlightAware Approximate
Wed 08:46:00 PM 36.1947 -127.7844 250° West  Level FlightAware Approximate
Wed 08:47:00 PM 36.1264 -128.0815 249° West 444 511 36,000  Level FlightAware Transoceanic
Wed 08:48:00 PM 36.0831 -128.2243 249° West 444 511 36,000  Level FlightAware Transoceanic
Wed 08:49:00 PM 36.0396 -128.3669 249° West 444 511 36,000  Level FlightAware Transoceanic
Wed 08:50:00 PM 35.9960 -128.5094 249° West 444 511 36,000  Level FlightAware Transoceanic
Wed 08:51:00 PM 35.9521 -128.6517 249° West 444 511 36,000  Level FlightAware Transoceanic
Wed 08:52:00 PM 35.9082 -128.7939 249° West 444 511 36,000  Level FlightAware Transoceanic
Wed 08:53:00 PM 35.8640 -128.9359 249° West 444 511 36,000  Level FlightAware Transoceanic
Wed 08:54:00 PM 35.8197 -129.0778 249° West 444 511 36,000  Level FlightAware Transoceanic
Wed 08:55:00 PM 35.7752 -129.2195 249° West 444 511 36,000  Level FlightAware Transoceanic
Wed 08:56:00 PM 35.7306 -129.3611 249° West 444 511 36,000  Level FlightAware Transoceanic
Wed 08:57:00 PM 35.6858 -129.5024 249° West 444 511 36,000  Level FlightAware Transoceanic
Wed 08:58:00 PM 35.6408 -129.6437 249° West 444 511 36,000  Level FlightAware Transoceanic
Wed 08:59:00 PM 35.5957 -129.7847 248° West 444 511 36,000  Level FlightAware Transoceanic
Wed 09:00:00 PM 35.5504 -129.9256 248° West 444 511 36,000  Level FlightAware Transoceanic
Wed 09:01:00 PM 35.5049 -130.0664 248° West 444 511 36,000  Level FlightAware Transoceanic
Wed 09:02:00 PM 35.4593 -130.2070 248° West 444 511 36,000  Level FlightAware Transoceanic
Wed 09:03:00 PM 35.4135 -130.3474 248° West 444 511 36,000  Level FlightAware Transoceanic
Wed 09:04:00 PM 35.3675 -130.4877 248° West 444 511 36,000  Level FlightAware Transoceanic
Wed 09:05:00 PM 35.3214 -130.6278 248° West 444 511 36,000  Level FlightAware Transoceanic
Wed 09:06:00 PM 35.2751 -130.7677 248° West 444 511 36,000  Level FlightAware Transoceanic
Wed 09:07:00 PM 35.2287 -130.9075 248° West 444 511 36,000  Level FlightAware Transoceanic
Wed 09:08:00 PM 35.1821 -131.0471 248° West 444 511 36,000  Level FlightAware Transoceanic
Wed 09:09:00 PM 35.1353 -131.1866 248° West 444 511 36,000  Level FlightAware Transoceanic
Wed 09:10:00 PM 35.0884 -131.3259 248° West 444 511 36,000  Level FlightAware Transoceanic
Wed 09:11:00 PM 35.0413 -131.4651 248° West 444 511 36,000  Level FlightAware Transoceanic
Wed 09:12:00 PM 34.9941 -131.6040 247° West 444 511 36,000  Level FlightAware Transoceanic
Wed 09:13:00 PM 34.9467 -131.7429 247° West 444 511 36,000  Level FlightAware Transoceanic
Wed 09:14:00 PM 34.8991 -131.8815 247° West 444 511 36,000  Level FlightAware Transoceanic
Wed 09:15:00 PM 34.8514 -132.0201 247° West 444 511 36,000  Level FlightAware Transoceanic
Wed 09:16:00 PM 34.8035 -132.1584 247° West 444 511 36,000  Level FlightAware Transoceanic
Wed 09:17:00 PM 34.7555 -132.2966 247° West 444 511 36,000  Level FlightAware Transoceanic
Wed 09:18:00 PM 34.7073 -132.4346 247° West 444 511 36,000  Level FlightAware Transoceanic
Wed 09:19:00 PM 34.6590 -132.5725 247° West 444 511 36,000  Level FlightAware Transoceanic
Wed 09:20:00 PM 34.6105 -132.7102 247° West 444 511 36,000  Level FlightAware Transoceanic
Wed 09:21:00 PM 34.5619 -132.8477 247° West 444 511 36,000  Level FlightAware Transoceanic
Wed 09:22:00 PM 34.5130 -132.9851 247° West 444 511 36,000  Level FlightAware Transoceanic
Wed 09:23:00 PM 34.4641 -133.1223 247° West 444 511 36,000  Level FlightAware Transoceanic
Wed 09:24:00 PM 34.4150 -133.2594 246° West 444 511 36,000  Level FlightAware Transoceanic
Wed 09:25:00 PM 34.3657 -133.3963 246° West 444 511 36,000  Level FlightAware Transoceanic
Wed 09:26:00 PM 34.3163 -133.5330 246° West 444 511 36,000  Level FlightAware Transoceanic
Wed 09:27:00 PM 34.2668 -133.6696 246° West 444 511 36,000  Level FlightAware Transoceanic
Wed 09:28:00 PM 34.2170 -133.8060 246° West 444 511 36,000  Level FlightAware Transoceanic
Wed 09:29:00 PM 34.1672 -133.9422 246° West 444 511 36,000  Level FlightAware Transoceanic
Wed 09:30:00 PM 34.1171 -134.0783 246° West 444 511 36,000  Level FlightAware Transoceanic
Wed 09:31:00 PM 34.0670 -134.2142 246° West 444 511 36,000  Level FlightAware Transoceanic
Wed 09:32:00 PM 34.0167 -134.3500 246° West 444 511 36,000  Level FlightAware Transoceanic
Wed 09:33:00 PM 33.9668 -134.4849 246° West 444 511 36,000  Level FlightAware Transoceanic
Wed 09:34:00 PM 33.9169 -134.6196 246° West 444 511 36,000  Level FlightAware Transoceanic
Wed 09:35:00 PM 33.8667 -134.7542 246° West 444 511 36,000  Level FlightAware Transoceanic
Wed 09:36:00 PM 33.8164 -134.8887 246° West 444 511 36,000  Level FlightAware Transoceanic
Wed 09:37:00 PM 33.7660 -135.0229 246° West 444 511 36,000  Level FlightAware Transoceanic
Wed 09:38:00 PM 33.7155 -135.1570 246° West 444 511 36,000  Level FlightAware Transoceanic
Wed 09:38:19 PM 34.0167 -134.3500 246° West 442 509 36,000  Level Oakland Oceanic (ODAPS)
Wed 09:39:00 PM 33.6648 -135.2910 245° Southwest 444 511 36,000  Level FlightAware Transoceanic
Wed 09:40:00 PM 33.6139 -135.4248 245° Southwest 444 511 36,000  Level FlightAware Transoceanic
Wed 09:41:00 PM 33.5629 -135.5584 245° Southwest 444 511 36,000  Level FlightAware Transoceanic
Wed 09:42:00 PM 33.5118 -135.6919 245° Southwest 444 511 36,000  Level FlightAware Transoceanic
Wed 09:43:00 PM 33.4605 -135.8252 245° Southwest 444 511 36,000  Level FlightAware Transoceanic
Wed 09:44:00 PM 33.4605 -135.8252 245° Southwest 442 509 36,000  Level FlightAware Transoceanic
Wed 09:45:00 PM 33.4091 -135.9584 245° Southwest 442 509 36,000  Level FlightAware Transoceanic
Wed 09:46:00 PM 33.3575 -136.0914 245° Southwest 442 509 36,000  Level FlightAware Transoceanic
Wed 09:47:00 PM 33.3058 -136.2242 245° Southwest 442 509 36,000  Level FlightAware Transoceanic
Wed 09:48:00 PM 33.2539 -136.3569 245° Southwest 442 509 36,000  Level FlightAware Transoceanic
Wed 09:49:00 PM 33.2019 -136.4895 245° Southwest 442 509 36,000  Level FlightAware Transoceanic
Wed 09:50:00 PM 33.1498 -136.6218 245° Southwest 442 509 36,000  Level FlightAware Transoceanic
Wed 09:51:00 PM 33.0975 -136.7541 245° Southwest 442 509 36,000  Level FlightAware Transoceanic
Wed 09:52:00 PM 33.0451 -136.8861 245° Southwest 442 509 36,000  Level FlightAware Transoceanic
Wed 09:53:00 PM 32.9926 -137.0180 245° Southwest 442 509 36,000  Level FlightAware Transoceanic
Wed 09:54:00 PM 32.9399 -137.1498 244° Southwest 442 509 36,000  Level FlightAware Transoceanic
Wed 09:55:00 PM 32.8871 -137.2814 244° Southwest 442 509 36,000  Level FlightAware Transoceanic
Wed 09:56:00 PM 32.8341 -137.4128 244° Southwest 442 509 36,000  Level FlightAware Transoceanic
Wed 09:57:00 PM 32.7810 -137.5441 244° Southwest 442 509 36,000  Level FlightAware Transoceanic
Wed 09:58:00 PM 32.7277 -137.6752 244° Southwest 442 509 36,000  Level FlightAware Transoceanic
Wed 09:59:00 PM 32.6744 -137.8061 244° Southwest 442 509 36,000  Level FlightAware Transoceanic
Wed 10:00:00 PM 32.6209 -137.9369 244° Southwest 442 509 36,000  Level FlightAware Transoceanic
Wed 10:01:00 PM 32.5672 -138.0676 244° Southwest 442 509 36,000  Level FlightAware Transoceanic
Wed 10:02:00 PM 32.5134 -138.1981 244° Southwest 442 509 36,000  Level FlightAware Transoceanic
Wed 10:03:00 PM 32.4595 -138.3284 244° Southwest 442 509 36,000  Level FlightAware Transoceanic
Wed 10:04:00 PM 32.4055 -138.4586 244° Southwest 442 509 36,000  Level FlightAware Transoceanic
Wed 10:05:00 PM 32.3513 -138.5886 244° Southwest 442 509 36,000  Level FlightAware Transoceanic
Wed 10:06:00 PM 32.2970 -138.7185 244° Southwest 442 509 36,000  Level FlightAware Transoceanic
Wed 10:07:00 PM 32.2425 -138.8482 244° Southwest 442 509 36,000  Level FlightAware Transoceanic
Wed 10:08:00 PM 32.1879 -138.9778 243° Southwest 442 509 36,000  Level FlightAware Transoceanic
Wed 10:09:00 PM 32.1332 -139.1072 243° Southwest 442 509 36,000  Level FlightAware Transoceanic
Wed 10:10:00 PM 32.0784 -139.2364 243° Southwest 442 509 36,000  Level FlightAware Transoceanic
Wed 10:11:00 PM 32.0234 -139.3655 243° Southwest 442 509 36,000  Level FlightAware Transoceanic
Wed 10:12:00 PM 31.9683 -139.4944 243° Southwest 442 509 36,000  Level FlightAware Transoceanic
Wed 10:13:00 PM 31.9131 -139.6232 243° Southwest 442 509 36,000  Level FlightAware Transoceanic
Wed 10:14:00 PM 31.8577 -139.7518 243° Southwest 442 509 36,000  Level FlightAware Transoceanic
Wed 10:15:00 PM 31.8022 -139.8803 243° Southwest 442 509 36,000  Level FlightAware Transoceanic
Wed 10:16:00 PM 31.7466 -140.0086 243° Southwest 442 509 36,000  Level FlightAware Transoceanic
Wed 10:17:00 PM 31.6908 -140.1368 243° Southwest 442 509 36,000  Level FlightAware Transoceanic
Wed 10:18:00 PM 31.6349 -140.2648 243° Southwest 442 509 36,000  Level FlightAware Transoceanic
Wed 10:19:00 PM 31.5789 -140.3927 243° Southwest 442 509 36,000  Level FlightAware Transoceanic
Wed 10:20:00 PM 31.5228 -140.5204 243° Southwest 442 509 36,000  Level FlightAware Transoceanic
Wed 10:21:00 PM 31.4665 -140.6479 243° Southwest 442 509 36,000  Level FlightAware Transoceanic
Wed 10:22:00 PM 31.4101 -140.7753 243° Southwest 442 509 36,000  Level FlightAware Transoceanic
Wed 10:23:00 PM 31.3536 -140.9025 242° Southwest 442 509 36,000  Level FlightAware Transoceanic
Wed 10:24:00 PM 31.2970 -141.0296 242° Southwest 442 509 36,000  Level FlightAware Transoceanic
Wed 10:25:00 PM 31.2402 -141.1566 242° Southwest 442 509 36,000  Level FlightAware Transoceanic
Wed 10:26:00 PM 31.1833 -141.2833 242° Southwest 442 509 36,000  Level FlightAware Transoceanic
Wed 10:27:00 PM 31.1277 -141.4066 242° Southwest 442 509 36,000  Level FlightAware Transoceanic
Wed 10:28:00 PM 31.0720 -141.5296 242° Southwest 442 509 36,000  Level FlightAware Transoceanic
Wed 10:29:00 PM 31.0162 -141.6525 242° Southwest 442 509 36,000 1,593 Level FlightAware Transoceanic
Wed 10:29:53 PM 31.1833 -141.2833 242° Southwest 414 476 39,000  Climbing Oakland Oceanic (ODAPS)
Wed 10:30:00 PM 30.9602 -141.7753 242° Southwest 442 509 36,000 -2,687 Descending FlightAware Transoceanic
Wed 10:31:00 PM 30.9042 -141.8980 242° Southwest 442 509 36,000  Level FlightAware Transoceanic
Wed 10:32:00 PM 30.8480 -142.0204 242° Southwest 442 509 36,000  Level FlightAware Transoceanic
Wed 10:33:00 PM 30.7917 -142.1428 242° Southwest 442 509 36,000  Level FlightAware Transoceanic
Wed 10:34:00 PM 30.7353 -142.2650 242° Southwest 442 509 36,000  Level FlightAware Transoceanic
Wed 10:35:00 PM 30.6787 -142.3871 242° Southwest 442 509 36,000 1,500 Level FlightAware Transoceanic
Wed 10:36:00 PM 30.6963 -142.3492 242° Southwest 414 476 39,000 1,500 Climbing FlightAware Transoceanic
Wed 10:37:00 PM 30.6416 -142.4670 242° Southwest 414 476 39,000  Level FlightAware Transoceanic
Wed 10:38:00 PM 30.5869 -142.5846 242° Southwest 414 476 39,000  Level FlightAware Transoceanic
Wed 10:39:00 PM 30.5320 -142.7021 242° Southwest 414 476 39,000  Level FlightAware Transoceanic
Wed 10:40:00 PM 30.4771 -142.8194 241° Southwest 414 476 39,000  Level FlightAware Transoceanic
Wed 10:41:00 PM 30.4220 -142.9367 241° Southwest 414 476 39,000  Level FlightAware Transoceanic
Wed 10:42:00 PM 30.3668 -143.0538 241° Southwest 414 476 39,000  Level FlightAware Transoceanic
Wed 10:43:00 PM 30.3115 -143.1707 241° Southwest 414 476 39,000  Level FlightAware Transoceanic
Wed 10:44:00 PM 30.2561 -143.2876 241° Southwest 414 476 39,000  Level FlightAware Transoceanic
Wed 10:45:00 PM 30.2006 -143.4043 241° Southwest 414 476 39,000  Level FlightAware Transoceanic
Wed 10:46:00 PM 30.1450 -143.5208 241° Southwest 414 476 39,000  Level FlightAware Transoceanic
Wed 10:47:00 PM 30.0893 -143.6373 241° Southwest 414 476 39,000  Level FlightAware Transoceanic
Wed 10:48:00 PM 30.0335 -143.7536 241° Southwest 414 476 39,000  Level FlightAware Transoceanic
Wed 10:49:00 PM 29.9776 -143.8698 241° Southwest 414 476 39,000  Level FlightAware Transoceanic
Wed 10:50:00 PM 29.9216 -143.9858 241° Southwest 414 476 39,000  Level FlightAware Transoceanic
Wed 10:51:00 PM 29.8655 -144.1017 241° Southwest 414 476 39,000  Level FlightAware Transoceanic
Wed 10:52:00 PM 29.8093 -144.2175 241° Southwest 414 476 39,000  Level FlightAware Transoceanic
Wed 10:53:00 PM 29.7530 -144.3332 241° Southwest 414 476 39,000  Level FlightAware Transoceanic
Wed 10:54:00 PM 29.6966 -144.4487 241° Southwest 414 476 39,000  Level FlightAware Transoceanic
Wed 10:55:00 PM 29.6401 -144.5641 241° Southwest 414 476 39,000  Level FlightAware Transoceanic
Wed 10:56:00 PM 29.5835 -144.6793 241° Southwest 414 476 39,000  Level FlightAware Transoceanic
Wed 10:57:00 PM 29.5268 -144.7945 240° Southwest 414 476 39,000  Level FlightAware Transoceanic
Wed 10:58:00 PM 29.4700 -144.9095 240° Southwest 414 476 39,000  Level FlightAware Transoceanic
Wed 10:59:00 PM 29.4131 -145.0244 240° Southwest 414 476 39,000  Level FlightAware Transoceanic
Wed 11:00:00 PM 29.3561 -145.1391 240° Southwest 414 476 39,000  Level FlightAware Transoceanic
Wed 11:01:00 PM 29.2990 -145.2537 240° Southwest 414 476 39,000  Level FlightAware Transoceanic
Wed 11:02:00 PM 29.2418 -145.3682 240° Southwest 414 476 39,000  Level FlightAware Transoceanic
Wed 11:03:00 PM 29.1845 -145.4826 240° Southwest 414 476 39,000  Level FlightAware Transoceanic
Wed 11:04:00 PM 29.1271 -145.5968 240° Southwest 414 476 39,000  Level FlightAware Transoceanic
Wed 11:05:00 PM 29.0696 -145.7109 240° Southwest 414 476 39,000  Level FlightAware Transoceanic
Wed 11:06:00 PM 29.0120 -145.8249 240° Southwest 414 476 39,000  Level FlightAware Transoceanic
Wed 11:07:00 PM 28.9543 -145.9388 240° Southwest 414 476 39,000  Level FlightAware Transoceanic
Wed 11:08:00 PM 28.8965 -146.0525 240° Southwest 414 476 39,000  Level FlightAware Transoceanic
Wed 11:09:00 PM 28.8387 -146.1661 240° Southwest 414 476 39,000  Level FlightAware Transoceanic
Wed 11:10:00 PM 28.7807 -146.2796 240° Southwest 414 476 39,000  Level FlightAware Transoceanic
Wed 11:11:00 PM 28.7227 -146.3929 240° Southwest 414 476 39,000  Level FlightAware Transoceanic
Wed 11:12:00 PM 28.6645 -146.5061 240° Southwest 414 476 39,000  Level FlightAware Transoceanic
Wed 11:13:00 PM 28.6062 -146.6192 240° Southwest 414 476 39,000  Level FlightAware Transoceanic
Wed 11:14:00 PM 28.5479 -146.7322 240° Southwest 414 476 39,000  Level FlightAware Transoceanic
Wed 11:15:00 PM 28.4895 -146.8450 239° Southwest 414 476 39,000  Level FlightAware Transoceanic
Wed 11:16:00 PM 28.4309 -146.9578 239° Southwest 414 476 39,000  Level FlightAware Transoceanic
Wed 11:17:00 PM 28.3723 -147.0704 239° Southwest 414 476 39,000  Level FlightAware Transoceanic
Wed 11:18:00 PM 28.3136 -147.1828 239° Southwest 414 476 39,000  Level FlightAware Transoceanic
Wed 11:19:00 PM 28.2548 -147.2952 239° Southwest 414 476 39,000  Level FlightAware Transoceanic
Wed 11:20:00 PM 28.1959 -147.4074 239° Southwest 414 476 39,000  Level FlightAware Transoceanic
Wed 11:21:00 PM 28.1369 -147.5195 239° Southwest 414 476 39,000  Level FlightAware Transoceanic
Wed 11:22:00 PM 28.0778 -147.6315 239° Southwest 414 476 39,000  Level FlightAware Transoceanic
Wed 11:23:00 PM 28.0186 -147.7433 239° Southwest 414 476 39,000  Level FlightAware Transoceanic
Wed 11:24:00 PM 27.9594 -147.8551 239° Southwest 414 476 39,000  Level FlightAware Transoceanic
Wed 11:25:00 PM 27.9000 -147.9667 239° Southwest 414 476 39,000  Level FlightAware Transoceanic
Wed 11:26:00 PM 27.8393 -148.0803 239° Southwest 414 476 39,000  Level FlightAware Transoceanic
Wed 11:27:00 PM 27.7785 -148.1938 239° Southwest 414 476 39,000  Level FlightAware Transoceanic
Wed 11:28:00 PM 27.7175 -148.3072 239° Southwest 414 476 39,000  Level FlightAware Transoceanic
Wed 11:29:00 PM 27.6565 -148.4205 239° Southwest 414 476 39,000  Level FlightAware Transoceanic
Wed 11:29:43 PM 27.9000 -147.9667 239° Southwest 422 486 39,000  Level Oakland Oceanic (ODAPS)
Wed 11:30:00 PM 27.5954 -148.5336 239° Southwest 414 476 39,000  Level FlightAware Transoceanic
Wed 11:31:00 PM 27.5343 -148.6467 239° Southwest 414 476 39,000  Level FlightAware Transoceanic
Wed 11:32:00 PM 27.4730 -148.7595 239° Southwest 414 476 39,000  Level FlightAware Transoceanic
Wed 11:33:00 PM 27.4116 -148.8723 238° Southwest 414 476 39,000  Level FlightAware Transoceanic
Wed 11:34:00 PM 27.3501 -148.9849 238° Southwest 414 476 39,000  Level FlightAware Transoceanic
Wed 11:35:00 PM 27.2886 -149.0974 238° Southwest 422 486 39,000  Level FlightAware Transoceanic
Wed 11:36:00 PM 27.2270 -149.2098 238° Southwest 422 486 39,000  Level FlightAware Transoceanic
Wed 11:37:00 PM 27.1652 -149.3221 238° Southwest 422 486 39,000  Level FlightAware Transoceanic
Wed 11:38:00 PM 27.1034 -149.4342 238° Southwest 422 486 39,000  Level FlightAware Transoceanic
Wed 11:39:00 PM 27.0415 -149.5463 238° Southwest 422 486 39,000  Level FlightAware Transoceanic
Wed 11:40:00 PM 26.9795 -149.6582 238° Southwest 422 486 39,000  Level FlightAware Transoceanic
Wed 11:41:00 PM 26.9174 -149.7699 238° Southwest 422 486 39,000  Level FlightAware Transoceanic
Wed 11:42:00 PM 26.8552 -149.8816 238° Southwest 422 486 39,000  Level FlightAware Transoceanic
Wed 11:43:00 PM 26.7930 -149.9931 238° Southwest 422 486 39,000  Level FlightAware Transoceanic
Wed 11:44:00 PM 26.7306 -150.1045 238° Southwest 422 486 39,000  Level FlightAware Transoceanic
Wed 11:45:00 PM 26.6682 -150.2158 238° Southwest 422 486 39,000  Level FlightAware Transoceanic
Wed 11:46:00 PM 26.6057 -150.3269 238° Southwest 422 486 39,000  Level FlightAware Transoceanic
Wed 11:47:00 PM 26.5431 -150.4380 238° Southwest 422 486 39,000  Level FlightAware Transoceanic
Wed 11:48:00 PM 26.4804 -150.5489 238° Southwest 422 486 39,000  Level FlightAware Transoceanic
Wed 11:49:00 PM 26.4176 -150.6597 238° Southwest 422 486 39,000  Level FlightAware Transoceanic
Wed 11:50:00 PM 26.3547 -150.7703 238° Southwest 422 486 39,000  Level FlightAware Transoceanic
Wed 11:51:00 PM 26.2918 -150.8809 238° Southwest 422 486 39,000  Level FlightAware Transoceanic
Wed 11:52:00 PM 26.2288 -150.9913 237° Southwest 422 486 39,000  Level FlightAware Transoceanic
Wed 11:53:00 PM 26.1656 -151.1016 237° Southwest 422 486 39,000  Level FlightAware Transoceanic
Wed 11:54:00 PM 26.1024 -151.2118 237° Southwest 422 486 39,000  Level FlightAware Transoceanic
Wed 11:55:00 PM 26.0392 -151.3219 237° Southwest 422 486 39,000  Level FlightAware Transoceanic
Wed 11:56:00 PM 25.9758 -151.4319 237° Southwest 422 486 39,000  Level FlightAware Transoceanic
Wed 11:57:00 PM 25.9123 -151.5417 237° Southwest 422 486 39,000  Level FlightAware Transoceanic
Wed 11:58:00 PM 25.8488 -151.6514 237° Southwest 422 486 39,000  Level FlightAware Transoceanic
Wed 11:59:00 PM 25.7852 -151.7610 237° Southwest 422 486 39,000  Level FlightAware Transoceanic
Thu 12:00:00 AM 25.7215 -151.8705 237° Southwest 422 486 39,000  Level FlightAware Transoceanic
Thu 12:01:00 AM 25.6577 -151.9799 237° Southwest 422 486 39,000  Level FlightAware Transoceanic
Thu 12:02:00 AM 25.5938 -152.0891 237° Southwest 422 486 39,000  Level FlightAware Transoceanic
Thu 12:03:00 AM 25.5299 -152.1982 237° Southwest 422 486 39,000  Level FlightAware Transoceanic
Thu 12:04:00 AM 25.4659 -152.3073 237° Southwest 422 486 39,000  Level FlightAware Transoceanic
Thu 12:05:00 AM 25.4018 -152.4162 237° Southwest 422 486 39,000  Level FlightAware Transoceanic
Thu 12:06:00 AM 25.3376 -152.5249 237° Southwest 422 486 39,000  Level FlightAware Transoceanic
Thu 12:07:00 AM 25.2733 -152.6336 237° Southwest 422 486 39,000  Level FlightAware Transoceanic
Thu 12:08:00 AM 25.2090 -152.7422 237° Southwest 422 486 39,000  Level FlightAware Transoceanic
Thu 12:09:00 AM 25.1446 -152.8506 237° Southwest 422 486 39,000  Level FlightAware Transoceanic
Thu 12:10:00 AM 25.0801 -152.9589 237° Southwest 422 486 39,000  Level FlightAware Transoceanic
Thu 12:11:00 AM 25.0155 -153.0671 237° Southwest 422 486 39,000  Level FlightAware Transoceanic
Thu 12:12:00 AM 24.9508 -153.1752 237° Southwest 422 486 39,000  Level FlightAware Transoceanic
Thu 12:13:00 AM 24.8861 -153.2832 237° Southwest 422 486 39,000  Level FlightAware Transoceanic
Thu 12:14:00 AM 24.8213 -153.3911 236° Southwest 422 486 39,000  Level FlightAware Transoceanic
Thu 12:15:00 AM 24.7564 -153.4988 236° Southwest 422 486 39,000  Level FlightAware Transoceanic
Thu 12:16:00 AM 24.6914 -153.6065 236° Southwest 422 486 39,000  Level FlightAware Transoceanic
Thu 12:17:00 AM 24.6264 -153.7140 236° Southwest 422 486 39,000  Level FlightAware Transoceanic
Thu 12:18:00 AM 24.5612 -153.8214 236° Southwest 422 486 39,000  Level FlightAware Transoceanic
Thu 12:19:00 AM 24.4960 -153.9287 236° Southwest 422 486 39,000  Level FlightAware Transoceanic
Thu 12:20:00 AM 24.4308 -154.0359 236° Southwest 422 486 39,000  Level FlightAware Transoceanic
Thu 12:21:00 AM 24.3654 -154.1430 236° Southwest 422 486 39,000  Level FlightAware Transoceanic
Thu 12:22:00 AM 24.3000 -154.2500 236° Southwest 422 486 39,000  Level FlightAware Transoceanic
Thu 12:23:00 AM 24.2365 -154.3533 236° Southwest 422 486 39,000 -1,978 Level FlightAware Transoceanic
Thu 12:23:31 AM 24.2833 -154.2667 236° Southwest 410 472 36,000  Descending Honolulu Center
Thu 12:24:00 AM 24.1729 -154.4566 236° Southwest 422 486 39,000 3,000 Climbing FlightAware Transoceanic
Thu 12:24:31 AM 24.2167 -154.3667 234° Southwest 410 472 39,000  Level Honolulu Center
Thu 12:25:00 AM 24.1093 -154.5597 236° Southwest 422 486 39,000  Level FlightAware Transoceanic
Thu 12:25:31 AM 24.1333 -154.4667 228° Southwest 420 483 39,000  Level Honolulu Center
Thu 12:26:00 AM 24.0455 -154.6627 236° Southwest 422 486 39,000  Level FlightAware Transoceanic
Thu 12:26:31 AM 24.0667 -154.5500 229° Southwest 420 483 39,000  Level Honolulu Center
Thu 12:27:00 AM 23.9818 -154.7657 236° Southwest 422 486 39,000  Level FlightAware Transoceanic
Thu 12:27:31 AM 23.9833 -154.6500 228° Southwest 420 483 39,000  Level Honolulu Center
Thu 12:28:00 AM 23.9179 -154.8685 236° Southwest 422 486 39,000  Level FlightAware Transoceanic
Thu 12:29:32 AM 23.8167 -154.8333 225° Southwest 420 483 39,000  Level Honolulu Center
Thu 12:30:32 AM 23.7333 -154.9167 222° Southwest 420 483 39,000  Level Honolulu Center
Thu 12:31:31 AM 23.6500 -155.0167 228° Southwest 410 472 39,000  Level Honolulu Center
Thu 12:32:32 AM 23.5833 -155.1000 229° Southwest 420 483 39,000  Level Honolulu Center
Thu 12:33:32 AM 23.5000 -155.2000 228° Southwest 420 483 39,000  Level Honolulu Center
Thu 12:34:32 AM 23.4167 -155.2833 223° Southwest 420 483 39,000  Level Honolulu Center
Thu 12:35:32 AM 23.3333 -155.3833 228° Southwest 420 483 39,000  Level Honolulu Center
Thu 12:36:32 AM 23.2500 -155.4667 223° Southwest 410 472 39,000  Level Honolulu Center
Thu 12:37:33 AM 23.1667 -155.5500 223° Southwest 420 483 39,000  Level Honolulu Center
Thu 12:38:32 AM 23.1000 -155.6500 234° Southwest 420 483 39,000  Level Honolulu Center
Thu 12:39:33 AM 23.0167 -155.7333 223° Southwest 420 483 39,000  Level Honolulu Center
Thu 12:40:33 AM 22.9333 -155.8333 228° Southwest 410 472 39,000  Level Honolulu Center
Thu 12:41:33 AM 22.8500 -155.9167 223° Southwest 420 483 39,000 -300 Level Honolulu Center
Thu 12:42:33 AM 22.7667 -156.0000 223° Southwest 410 472 38,400 -1,100 Descending Honolulu Center
Thu 12:43:33 AM 22.6833 -156.1000 228° Southwest 420 483 36,800 -1,550 Descending Honolulu Center
Thu 12:44:33 AM 22.6000 -156.1833 223° Southwest 430 495 35,300 -1,500 Descending Honolulu Center
Thu 12:45:33 AM 22.5167 -156.2833 228° Southwest 430 495 33,800 -1,500 Descending Honolulu Center
Thu 12:46:33 AM 22.4333 -156.3833 228° Southwest 440 506 32,300 -1,240 Descending Honolulu Center
Thu 12:47:34 AM 22.3500 -156.4667 223° Southwest 440 506 31,300 -992 Descending Honolulu Center
Thu 12:48:34 AM 22.2667 -156.5667 228° Southwest 430 495 30,300 -950 Descending Honolulu Center
Thu 12:49:34 AM 22.2000 -156.6667 234° Southwest 420 483 29,400 -1,000 Descending Honolulu Center
Thu 12:50:34 AM 22.1667 -156.7833 253° West 410 472 28,300 -1,600 Descending Honolulu Center
Thu 12:51:34 AM 22.1333 -156.9000 253° West 400 460 26,200 -2,000 Descending Honolulu Center
Thu 12:52:34 AM 22.0667 -156.9833 229° Southwest 400 460 24,300 -1,750 Descending Honolulu Center
Thu 12:53:34 AM 21.9667 -157.0500 212° Southwest 390 449 22,700 -1,850 Descending Honolulu Center
Thu 12:54:34 AM 21.8833 -157.1167 217° Southwest 370 426 20,600 -1,983 Descending Honolulu Center
Thu 12:55:35 AM 21.8000 -157.1833 217° Southwest 370 426 18,700 -1,835 Descending Honolulu Center
Thu 12:56:35 AM 21.7167 -157.2500 217° Southwest 360 414 16,900 -1,800 Descending Honolulu Center
Thu 12:57:35 AM 21.6500 -157.3167 223° Southwest 350 403 15,100 -1,750 Descending Honolulu Center
Thu 12:58:35 AM 21.5667 -157.3833 217° Southwest 340 391 13,400 -1,850 Descending Honolulu Center
Thu 12:59:35 AM 21.4833 -157.4333 209° Southwest 340 391 11,400 -2,000 Descending Honolulu Center

Login

Don't have an account? Register now (free) for customized features, flight alerts, and more!